Time;durP1;ratioP1;P1;durP2;ratioP2;P2;SDS_P1;SDS_P2;PMS_P1;PMS_P2;Temp;Humidity;BMP_temperature;BMP_pressure;BME280_temperature;BME280_humidity;BME280_pressure;Samples;Min_cycle;Max_cycle;Signal;HPM_P1;HPM_P2
2022/02/10 00:03:28;;;;;;;;;56.25;45.00;;;;;8.38;67.22;101471.66;5098208;27;45474;-60
2022/02/10 00:22:31;;;;;;;;;57.25;45.50;;;;;8.56;66.67;101461.81;5097573;27;45400;-60
2022/02/10 00:35:04;;;;;;;;;60.75;49.50;;;;;8.67;66.51;101461.09;5097397;27;45305;-60
2022/02/10 00:37:48;;;;;;;;;69.50;53.25;;;;;8.67;66.63;101468.94;5097191;27;45484;-60
2022/02/10 00:40:13;;;;;;;;;65.50;50.75;;;;;8.67;66.47;101463.72;5097214;27;45737;-60
2022/02/10 00:42:39;;;;;;;;;63.00;48.75;;;;;8.66;66.57;101467.28;5097384;27;45537;-61
2022/02/10 00:45:05;;;;;;;;;62.50;49.25;;;;;8.66;66.56;101464.66;5097112;27;45592;-61
2022/02/10 00:47:38;;;;;;;;;65.50;51.25;;;;;8.66;66.63;101464.66;5078606;27;46143;-60
2022/02/10 00:50:06;;;;;;;;;67.00;52.00;;;;;8.66;66.67;101467.28;5080267;27;45317;-60
2022/02/10 00:52:31;;;;;;;;;67.50;52.00;;;;;8.67;66.45;101471.56;5097104;27;45409;-60
2022/02/10 00:54:57;;;;;;;;;68.25;53.25;;;;;8.66;66.70;101461.19;5078732;27;45268;-60
2022/02/10 00:57:24;;;;;;;;;65.00;48.25;;;;;8.67;66.86;101462.88;5096470;27;46244;-59
2022/02/10 01:00:04;;;;;;;;;66.75;50.00;;;;;8.66;66.55;101475.13;5097034;27;45672;-61
2022/02/10 01:07:02;;;;;;;;;72.00;56.00;;;;;8.66;66.71;101469.88;5097266;27;45367;-60
2022/02/10 01:11:15;;;;;;;;;72.75;55.00;;;;;8.67;67.26;101470.75;5096852;27;45414;-60
2022/02/10 01:13:56;;;;;;;;;69.75;51.25;;;;;8.67;67.26;101473.38;5096385;27;45424;-60
2022/02/10 01:29:34;;;;;;;;;63.75;47.25;;;;;8.70;67.67;101484.47;5096898;27;45441;-61
2022/02/10 01:30:06;;;;;;;;;58.25;47.00;;;;;8.70;67.66;101476.63;5096397;27;45670;-60
2022/02/10 01:32:31;;;;;;;;;58.25;47.75;;;;;8.73;67.65;101476.41;5096397;27;45404;-61
2022/02/10 01:34:57;;;;;;;;;64.50;50.00;;;;;8.74;67.47;101477.28;5096579;27;45681;-60
2022/02/10 01:37:22;;;;;;;;;60.00;48.00;;;;;8.75;67.51;101469.28;5096462;27;45272;-60
2022/02/10 01:40:02;;;;;;;;;64.00;50.75;;;;;8.76;67.65;101470.97;5095611;27;64448;-61
2022/02/10 02:04:20;;;;;;;;;53.75;44.50;;;;;8.78;68.07;101475.28;5096147;27;45821;-60
2022/02/10 02:06:47;;;;;;;;;56.50;44.75;;;;;8.76;67.87;101483.22;5096102;27;45447;-60
2022/02/10 02:09:15;;;;;;;;;53.00;44.25;;;;;8.76;68.25;101484.06;5096065;27;45487;-60
2022/02/10 02:11:45;;;;;;;;;62.25;47.75;;;;;8.76;68.05;101476.22;5095848;27;46014;-61
2022/02/10 02:14:19;;;;;;;;;54.00;44.00;;;;;8.76;68.36;101483.22;5095307;27;45247;-61
2022/02/10 02:17:02;;;;;;;;;54.50;43.25;;;;;8.75;68.03;101477.16;5099076;27;45491;-61
2022/02/10 02:19:28;;;;;;;;;50.00;38.00;;;;;8.75;68.15;101479.78;5099439;27;45515;-61
2022/02/10 02:21:58;;;;;;;;;50.50;40.00;;;;;8.77;68.37;101479.66;5099493;27;46298;-60
2022/02/10 02:24:23;;;;;;;;;53.75;41.50;;;;;8.79;68.22;101476.94;5099534;27;45789;-61
2022/02/10 02:26:50;;;;;;;;;56.75;41.75;;;;;8.81;67.99;101469.84;5098775;27;54992;-60
2022/02/10 02:29:19;;;;;;;;;44.75;37.00;;;;;8.84;68.15;101477.50;5081267;27;45388;-60
2022/02/10 02:31:55;;;;;;;;;43.75;36.00;;;;;8.86;68.14;101486.09;5098973;27;46042;-61
2022/02/10 03:06:46;;;;;;;;;35.50;32.00;;;;;8.96;67.03;101470.59;5098816;27;45303;-60
2022/02/10 03:09:19;;;;;;;;;33.75;25.50;;;;;8.96;66.99;101465.34;5098755;27;45337;-60
2022/02/10 03:11:45;;;;;;;;;28.50;26.75;;;;;8.95;66.94;101466.28;5080395;27;45454;-61
2022/02/10 03:14:15;;;;;;;;;27.75;24.50;;;;;8.95;66.85;101467.13;5097883;27;60092;-60
2022/02/10 04:05:28;;;;;;;;;27.00;23.75;;;;;8.94;66.11;101488.19;5097887;27;45300;-61
2022/02/10 04:07:59;;;;;;;;;22.00;22.00;;;;;8.92;66.09;101490.94;5097346;27;45319;-61
2022/02/10 04:11:03;;;;;;;;;32.00;26.00;;;;;8.93;65.79;101489.13;5097658;27;45916;-61
2022/02/10 04:13:39;;;;;;;;;23.25;22.75;;;;;8.94;65.96;101503.91;5097020;27;45239;-60
2022/02/10 04:53:55;;;;;;;;;37.75;30.50;;;;;8.80;66.31;101524.00;5096957;27;45467;-61
2022/02/10 04:58:48;;;;;;;;;32.75;27.00;;;;;8.76;66.05;101526.00;5097151;27;45242;-60
2022/02/10 05:35:38;;;;;;;;;40.50;31.00;;;;;8.58;66.91;101537.66;5096544;27;45855;-60
2022/02/10 05:43:42;;;;;;;;;37.50;31.75;;;;;8.55;66.91;101524.75;5096309;27;45455;-60
2022/02/10 05:56:42;;;;;;;;;29.00;25.00;;;;;8.52;67.00;101544.13;5099842;27;45842;-60
2022/02/10 06:53:23;;;;;;;;;31.25;26.25;;;;;8.47;65.87;101569.75;5099093;27;45264;-60
2022/02/10 06:56:17;;;;;;;;;34.25;29.50;;;;;8.49;65.86;101574.91;5099029;27;45260;-60
2022/02/10 07:43:39;;;;;;;;;30.00;25.00;;;;;8.53;66.00;101594.72;5098727;27;45320;-60
2022/02/10 07:53:06;;;;;;;;;34.00;27.50;;;;;8.60;66.28;101607.38;5097855;27;45274;-60
2022/02/10 07:58:21;;;;;;;;;31.25;28.50;;;;;8.60;66.26;101598.66;5097785;27;45441;-61
2022/02/10 09:03:49;;;;;;;;;38.75;32.75;;;;;8.88;65.78;101658.00;5079700;27;45303;-61
2022/02/10 09:22:10;;;;;;;;;48.50;35.00;;;;;9.11;65.43;101657.47;5115135;27;45849;-59
2022/02/10 10:02:56;;;;;;;;;37.50;30.75;;;;;9.69;63.86;101691.34;5120410;27;45321;-61
2022/02/10 10:05:30;;;;;;;;;41.75;32.00;;;;;9.72;63.82;101699.00;5120082;27;45271;-60
2022/02/10 10:13:33;;;;;;;;;38.75;31.50;;;;;9.84;63.25;101694.72;5119630;27;45504;-61
2022/02/10 10:18:59;;;;;;;;;38.50;32.25;;;;;9.90;63.03;101694.31;5104233;27;45414;-61
2022/02/10 10:21:33;;;;;;;;;32.25;30.50;;;;;9.95;62.67;101697.47;5089170;27;45347;-61
2022/02/10 10:24:27;;;;;;;;;40.25;33.00;;;;;9.99;62.76;101695.50;5085991;27;46369;-61
2022/02/10 10:56:33;;;;;;;;;38.25;32.00;;;;;10.75;60.04;101709.56;5119101;27;45379;-60
2022/02/10 11:39:44;;;;;;;;;30.25;25.50;;;;;11.57;57.01;101680.00;5077355;27;45404;-61
2022/02/10 11:45:08;;;;;;;;;26.33;23.00;;;;;11.63;56.83;101672.59;5086371;27;45433;-60
2022/02/10 14:14:17;;;;;;;;;17.50;14.75;;;;;11.39;63.57;101555.88;5078775;28;45392;-58
2022/02/10 14:16:56;;;;;;;;;15.25;13.00;;;;;11.36;63.38;101555.28;5078965;28;45873;-62
2022/02/10 14:27:25;;;;;;;;;13.00;12.25;;;;;11.25;63.95;101559.56;5077481;28;45496;-61
2022/02/10 14:29:50;;;;;;;;;16.50;14.25;;;;;11.22;64.64;101556.31;5077966;28;45366;-60
2022/02/10 14:32:18;;;;;;;;;16.75;14.25;;;;;11.19;64.62;101556.53;5078137;28;45469;-61
2022/02/10 14:34:46;;;;;;;;;39.75;32.50;;;;;11.17;64.73;101555.81;5077923;28;47071;-61
2022/02/10 15:18:25;;;;;;;;;29.25;25.50;;;;;10.81;67.15;101535.63;5077407;28;45308;-60
2022/02/10 15:21:20;;;;;;;;;28.50;26.00;;;;;10.81;67.20;101538.25;5077698;28;45434;-61
2022/02/10 16:17:13;;;;;;;;;30.00;26.50;;;;;10.45;68.93;101507.59;5077412;28;45473;-61
2022/02/10 16:19:41;;;;;;;;;53.00;40.25;;;;;10.45;68.52;101505.81;5076982;28;45405;-60
2022/02/10 16:24:35;;;;;;;;;57.75;45.75;;;;;10.41;69.16;101501.75;5076845;28;45248;-60
2022/02/10 16:27:15;;;;;;;;;52.00;41.00;;;;;10.39;68.79;101495.75;5076972;28;45279;-61
2022/02/10 16:29:41;;;;;;;;;37.00;32.25;;;;;10.36;68.94;101498.56;5075803;28;45241;-61
2022/02/10 16:32:08;;;;;;;;;46.75;35.25;;;;;10.37;68.86;101503.69;5076790;28;45866;-61
2022/02/10 16:34:38;;;;;;;;;42.50;36.75;;;;;10.36;68.85;101499.41;5076292;28;45686;-61
2022/02/10 16:37:06;;;;;;;;;56.75;46.00;;;;;10.35;68.94;101499.53;5076210;28;45490;-61
2022/02/10 16:39:32;;;;;;;;;62.00;48.00;;;;;10.35;69.05;101495.09;5076265;28;45379;-61
2022/02/10 16:41:57;;;;;;;;;55.75;45.75;;;;;10.32;69.15;101491.88;5075653;28;73231;-60
2022/02/10 16:44:22;;;;;;;;;54.00;44.00;;;;;10.29;69.61;101498.19;5075793;28;66292;-60
2022/02/10 16:46:48;;;;;;;;;53.00;43.50;;;;;10.28;69.20;101490.41;5076697;28;45347;-61
2022/02/10 16:49:16;;;;;;;;;45.50;37.00;;;;;10.23;69.65;101488.94;5075778;28;67994;-61
2022/02/10 16:51:44;;;;;;;;;39.25;33.50;;;;;10.22;69.46;101489.88;5076472;28;46152;-61
2022/02/10 16:54:20;;;;;;;;;34.25;30.25;;;;;10.21;69.28;101490.84;5076661;28;45323;-60
2022/02/10 16:56:59;;;;;;;;;31.75;28.00;;;;;10.21;69.67;101496.09;5042701;28;45306;-60
2022/02/10 17:02:23;;;;;;;;;34.00;27.75;;;;;10.19;69.88;101502.41;5076520;28;45285;-60
2022/02/10 17:18:50;;;;;;;;;40.00;34.00;;;;;10.09;70.00;101510.09;5076415;28;45197;-60
2022/02/10 17:28:59;;;;;;;;;52.50;45.00;;;;;10.05;70.73;101514.72;5076104;28;45342;-60
2022/02/10 17:31:41;;;;;;;;;52.50;42.50;;;;;10.04;70.65;101520.09;5057751;28;45548;-61
2022/02/10 17:37:05;;;;;;;;;48.50;39.75;;;;;10.01;70.63;101543.94;5075684;28;45881;-61
2022/02/10 17:52:45;;;;;;;;;14.75;12.50;;;;;9.58;68.38;101594.97;5079709;28;45344;-60
2022/02/10 17:55:12;;;;;;;;;10.25;9.00;;;;;9.45;67.64;101581.84;5079548;28;46282;-61
2022/02/10 17:57:37;;;;;;;;;6.25;5.50;;;;;9.29;67.22;101595.97;5079347;28;45434;-61
2022/02/10 18:00:05;;;;;;;;;8.00;7.00;;;;;9.16;67.37;101595.09;5079618;28;45318;-61
2022/02/10 18:02:30;;;;;;;;;7.25;6.75;;;;;9.06;67.36;101600.94;5079424;28;45496;-60
2022/02/10 18:04:55;;;;;;;;;10.00;8.00;;;;;8.96;67.53;101601.66;5078133;28;73387;-60
2022/02/10 18:07:21;;;;;;;;;12.75;9.25;;;;;8.85;67.62;101610.22;5078295;28;45294;-60
2022/02/10 18:15:18;;;;;;;;;12.25;11.75;;;;;8.59;67.67;101620.53;5079205;28;46083;-61
2022/02/10 18:18:00;;;;;;;;;10.00;7.00;;;;;8.51;68.01;101617.56;5078508;28;45778;-60
2022/02/10 18:20:34;;;;;;;;;17.00;14.25;;;;;8.44;68.42;101627.56;5078254;28;45372;-60
2022/02/10 18:23:07;;;;;;;;;19.50;18.50;;;;;8.41;68.27;101639.09;5079086;28;46099;-61
2022/02/10 18:25:47;;;;;;;;;24.50;19.00;;;;;8.37;68.34;101637.59;5079061;28;45313;-61
2022/02/10 19:08:18;;;;;;;;;7.50;7.00;;;;;7.24;67.69;101704.31;5078450;28;45393;-60
2022/02/10 19:10:46;;;;;;;;;9.25;4.00;;;;;7.19;67.72;101703.72;5077739;28;45945;-61
2022/02/10 19:13:15;;;;;;;;;9.00;3.00;;;;;7.14;67.73;101714.44;5078569;28;45395;-60
2022/02/10 19:15:40;;;;;;;;;8.75;5.00;;;;;7.11;67.93;101725.91;5078376;28;45300;-61
2022/02/10 19:18:07;;;;;;;;;6.50;5.75;;;;;7.09;67.92;101733.00;5076817;28;74572;-60
2022/02/10 19:20:34;;;;;;;;;8.00;8.00;;;;;7.07;68.01;101736.59;5078048;28;45264;-61
2022/02/10 19:23:00;;;;;;;;;5.00;4.00;;;;;7.04;68.05;101744.59;5078384;28;45220;-60
2022/02/10 19:25:26;;;;;;;;;12.50;11.50;;;;;7.02;68.33;101739.47;5077571;28;45448;-60
2022/02/10 19:27:51;;;;;;;;;10.75;10.75;;;;;7.02;68.74;101742.09;5075647;28;75582;-60
2022/02/10 19:30:18;;;;;;;;;12.75;10.00;;;;;7.04;68.71;101744.59;5077738;28;45549;-61
2022/02/10 19:32:49;;;;;;;;;7.00;7.00;;;;;7.06;68.57;101738.41;5078107;28;45500;-60
2022/02/10 19:35:16;;;;;;;;;17.00;12.00;;;;;7.03;68.80;101749.00;5077700;28;45401;-61
2022/02/10 19:37:44;;;;;;;;;10.00;8.25;;;;;7.02;68.96;101751.69;5077960;28;46278;-61
2022/02/10 19:40:10;;;;;;;;;12.50;11.25;;;;;7.02;68.99;101741.22;5078076;28;45278;-61
2022/02/10 19:42:37;;;;;;;;;6.25;6.25;;;;;7.03;68.87;101754.25;5078244;28;45227;-60
2022/02/10 19:45:04;;;;;;;;;11.75;8.00;;;;;7.02;69.08;101759.53;5077926;28;45602;-60
2022/02/10 19:47:31;;;;;;;;;11.00;5.75;;;;;7.00;69.00;101762.25;5077689;28;46374;-61
2022/02/10 19:49:57;;;;;;;;;11.00;9.50;;;;;6.98;69.06;101772.75;5077536;28;45426;-60
2022/02/10 19:52:23;;;;;;;;;11.75;9.25;;;;;7.02;69.09;101763.00;5078056;28;45387;-60
2022/02/10 19:54:51;;;;;;;;;5.75;5.75;;;;;6.98;69.18;101767.53;5077917;28;45287;-60
2022/02/10 19:57:18;;;;;;;;;8.50;8.00;;;;;6.99;69.27;101768.38;5042760;28;46548;-61
2022/02/10 19:59:44;;;;;;;;;12.25;10.00;;;;;7.00;69.14;101767.47;5059232;28;45752;-60
2022/02/10 20:02:10;;;;;;;;;11.25;10.00;;;;;6.99;69.18;101768.38;5077223;28;55396;-61
2022/02/10 20:04:35;;;;;;;;;9.75;8.75;;;;;7.00;69.10;101769.22;5077839;28;45489;-60
2022/02/10 20:07:00;;;;;;;;;11.00;8.25;;;;;6.99;69.23;101771.00;5059176;28;46111;-66
2022/02/10 20:09:26;;;;;;;;;8.00;8.00;;;;;7.00;69.03;101777.91;5075851;28;59958;-60
2022/02/10 20:11:52;;;;;;;;;14.25;12.75;;;;;7.01;69.02;101777.00;5059205;28;45406;-61
2022/02/10 20:14:20;;;;;;;;;18.00;10.00;;;;;7.02;68.99;101775.22;5077398;28;45455;-60
2022/02/10 20:16:46;;;;;;;;;12.25;11.00;;;;;7.01;69.07;101779.59;5076634;28;45461;-61
2022/02/10 20:19:11;;;;;;;;;17.50;14.75;;;;;7.04;69.14;101787.28;5042196;28;45385;-60
2022/02/10 20:21:37;;;;;;;;;12.25;10.00;;;;;7.03;68.97;101784.72;5076409;28;61849;-60
2022/02/10 20:24:03;;;;;;;;;9.00;6.25;;;;;7.03;69.12;101796.06;5076296;28;69156;-60
2022/02/10 20:26:28;;;;;;;;;7.25;5.75;;;;;7.03;69.18;101789.97;5076848;28;45913;-60
2022/02/10 20:28:53;;;;;;;;;9.50;7.75;;;;;7.03;69.07;101792.56;5075920;28;72168;-60
2022/02/10 20:31:19;;;;;;;;;8.50;8.50;;;;;7.03;68.85;101801.28;5075983;28;65841;-60
2022/02/10 20:33:45;;;;;;;;;11.00;9.00;;;;;7.03;68.87;101797.81;5077154;28;45221;-61
2022/02/10 20:36:10;;;;;;;;;11.00;8.00;;;;;7.04;68.86;101797.75;5076960;28;46176;-61
2022/02/10 20:38:39;;;;;;;;;6.00;6.00;;;;;7.04;68.91;101795.13;5076643;28;52005;-60
2022/02/10 20:41:12;;;;;;;;;8.00;7.75;;;;;7.05;68.90;101803.78;5077182;28;45371;-60
2022/02/10 20:43:37;;;;;;;;;8.50;8.50;;;;;7.04;68.81;101796.88;5077110;28;45241;-61
2022/02/10 20:46:06;;;;;;;;;13.00;11.00;;;;;7.04;68.88;101792.50;5076814;28;45849;-61
2022/02/10 20:48:33;;;;;;;;;11.00;10.75;;;;;7.05;69.04;101798.56;5076669;28;45892;-60
2022/02/10 20:50:59;;;;;;;;;17.00;11.00;;;;;7.06;68.89;101795.88;5076289;28;45170;-61
2022/02/10 20:53:25;;;;;;;;;19.25;15.25;;;;;7.08;68.98;101806.25;5076747;28;45580;-60
2022/02/10 20:55:55;;;;;;;;;15.50;11.00;;;;;7.07;68.93;101810.66;5076391;28;46142;-61
2022/02/10 20:58:23;;;;;;;;;11.25;9.75;;;;;7.08;69.01;101814.09;5076751;28;45399;-61
2022/02/10 21:00:50;;;;;;;;;6.25;6.25;;;;;7.05;68.80;101814.25;5076068;28;45410;-60
2022/02/10 21:03:16;;;;;;;;;5.75;5.00;;;;;7.06;68.78;101826.38;5076913;28;45363;-60
2022/02/10 21:05:43;;;;;;;;;11.50;8.50;;;;;7.03;68.83;101819.56;5076756;28;45768;-61
2022/02/10 21:10:52;;;;;;;;;6.75;5.00;;;;;7.01;68.87;101823.16;5076787;28;45332;-60
2022/02/10 21:13:18;;;;;;;;;5.50;4.25;;;;;6.99;68.93;101820.66;5076302;28;49854;-61
2022/02/10 21:15:46;;;;;;;;;8.75;7.75;;;;;6.98;68.98;101827.63;5076443;28;45359;-60
2022/02/10 21:18:13;;;;;;;;;8.75;8.25;;;;;6.98;69.15;101829.41;5076627;28;45250;-60
2022/02/10 21:20:38;;;;;;;;;11.25;11.25;;;;;7.00;69.00;101835.41;5076633;28;45452;-61
2022/02/10 21:23:17;;;;;;;;;10.00;9.00;;;;;6.98;68.92;101826.81;5076541;28;45592;-60
2022/02/10 21:25:43;;;;;;;;;10.50;9.00;;;;;6.97;69.14;101828.56;5076301;28;47166;-59
2022/02/10 21:28:18;;;;;;;;;11.00;9.00;;;;;6.98;69.20;101825.03;5076397;28;45363;-61
2022/02/10 21:30:45;;;;;;;;;25.50;21.75;;;;;7.00;69.22;101827.56;5076325;28;45350;-61
2022/02/10 21:33:19;;;;;;;;;17.00;14.75;;;;;7.02;69.15;101845.78;5076264;28;45535;-60
2022/02/10 21:38:30;;;;;;;;;20.25;18.00;;;;;7.02;69.47;101830.09;5076096;28;45400;-61
2022/02/10 21:55:07;;;;;;;;;17.25;13.25;;;;;7.05;68.98;101838.63;5076189;28;45208;-61
2022/02/10 21:59:52;;;;;;;;;16.50;15.25;;;;;7.05;69.01;101845.59;5074829;28;45319;-61
2022/02/10 22:18:36;;;;;;;;;17.25;14.00;;;;;7.03;69.17;101858.78;5075782;28;45313;-60
2022/02/10 22:21:04;;;;;;;;;15.25;13.00;;;;;7.03;68.99;101855.28;5075730;28;45960;-61
2022/02/10 22:23:30;;;;;;;;;17.00;14.75;;;;;7.04;69.08;101855.22;5074684;28;45410;-61
2022/02/10 22:26:02;;;;;;;;;16.75;12.25;;;;;7.04;68.73;101857.84;5075795;28;45283;-60
2022/02/10 22:33:53;;;;;;;;;16.25;13.50;;;;;7.05;68.93;101861.28;5078600;28;45473;-60
2022/02/10 22:36:21;;;;;;;;;14.50;12.75;;;;;7.05;68.92;101866.50;5079208;28;45309;-61
2022/02/10 22:38:52;;;;;;;;;15.75;13.75;;;;;7.02;68.77;101862.31;5078841;28;46166;-60
2022/02/10 22:41:17;;;;;;;;;12.75;10.50;;;;;7.03;68.83;101868.38;5061705;28;45502;-60
2022/02/10 22:43:46;;;;;;;;;15.75;12.75;;;;;7.01;68.88;101868.47;5079025;28;45363;-60
2022/02/10 22:46:11;;;;;;;;;18.00;12.25;;;;;7.00;68.98;101871.13;5078064;28;45433;-60
2022/02/10 22:48:40;;;;;;;;;14.25;12.50;;;;;6.97;69.01;101875.59;5078759;28;46073;-61
2022/02/10 22:51:05;;;;;;;;;17.50;12.50;;;;;6.96;69.04;101873.06;5078710;28;46031;-60
2022/02/10 22:53:31;;;;;;;;;12.25;11.00;;;;;6.95;68.99;101877.44;5078767;28;45418;-62
2022/02/10 22:55:56;;;;;;;;;13.25;10.75;;;;;6.94;68.89;101870.53;5078948;28;45322;-61
2022/02/10 22:58:22;;;;;;;;;12.50;12.50;;;;;6.95;68.79;101876.63;5078661;28;45478;-61
2022/02/10 23:00:47;;;;;;;;;13.25;11.00;;;;;6.94;68.94;101875.75;5077651;28;45403;-60
2022/02/10 23:03:18;;;;;;;;;12.50;9.75;;;;;6.93;68.80;101874.06;5078618;28;45255;-61
2022/02/10 23:05:43;;;;;;;;;18.50;15.75;;;;;6.91;68.83;101873.28;5078620;28;45420;-60
2022/02/10 23:08:09;;;;;;;;;18.00;16.50;;;;;6.89;68.92;101882.97;5078628;28;45396;-61
2022/02/10 23:10:50;;;;;;;;;16.75;13.25;;;;;6.87;69.01;101884.00;5077224;28;45267;-60
2022/02/10 23:13:18;;;;;;;;;11.00;10.75;;;;;6.86;68.98;101883.16;5078591;28;45334;-61
2022/02/10 23:15:43;;;;;;;;;17.25;15.75;;;;;6.85;68.80;101894.53;5078442;28;45613;-60
2022/02/10 23:18:10;;;;;;;;;14.75;12.00;;;;;6.84;68.83;101900.69;5078340;28;45412;-60
2022/02/10 23:20:36;;;;;;;;;16.00;10.75;;;;;6.82;68.93;101908.59;5078284;28;45993;-60
2022/02/10 23:23:03;;;;;;;;;11.50;10.00;;;;;6.79;68.92;101911.34;5078373;28;45373;-60
2022/02/10 23:25:29;;;;;;;;;11.25;10.00;;;;;6.78;68.99;101906.22;5078203;28;45358;-60
2022/02/10 23:27:54;;;;;;;;;16.25;11.00;;;;;6.78;68.69;101916.66;5077901;28;52544;-61
2022/02/10 23:30:23;;;;;;;;;13.25;10.00;;;;;6.76;68.61;101911.50;5076949;28;73168;-60
2022/02/10 23:32:49;;;;;;;;;12.00;10.50;;;;;6.73;68.84;101909.03;5078370;28;45294;-60
2022/02/10 23:35:55;;;;;;;;;11.25;9.50;;;;;6.71;68.78;101916.13;5077567;28;45244;-60
2022/02/10 23:38:00;;;;;;;;;14.50;11.25;;;;;6.70;68.63;101919.66;5077759;28;45871;-61
2022/02/10 23:40:31;;;;;;;;;13.50;10.00;;;;;6.67;68.79;101925.03;5077925;28;45467;-61
2022/02/10 23:42:56;;;;;;;;;12.75;10.50;;;;;6.65;68.78;101924.25;5077906;28;45250;-61
2022/02/10 23:45:26;;;;;;;;;14.00;13.50;;;;;6.61;68.71;101931.41;5077171;28;45242;-60
2022/02/10 23:47:52;;;;;;;;;14.00;11.75;;;;;6.61;68.77;101933.19;5077778;28;45993;-60
2022/02/10 23:50:23;;;;;;;;;11.25;10.00;;;;;6.56;68.79;101930.78;5077690;28;45429;-60
2022/02/10 23:52:52;;;;;;;;;18.75;14.50;;;;;6.56;68.57;101940.41;5077880;28;45320;-61
2022/02/10 23:55:24;;;;;;;;;13.50;10.75;;;;;6.52;68.58;101929.25;5060316;28;45388;-60
